Time;durP1;ratioP1;P1;durP2;ratioP2;P2;SDS_P1;SDS_P2;PMS_P1;PMS_P2;Temp;Humidity;BMP_temperature;BMP_pressure;BME280_temperature;BME280_humidity;BME280_pressure;Samples;Min_cycle;Max_cycle;Signal;HPM_P1;HPM_P2
2022/11/02 00:00:40;;;;;;;;;;;;;;;;;;5037171;28;20332;-50
2022/11/02 00:03:06;;;;;;;;;;;;;;;;;;5048571;28;19909;-52
2022/11/02 00:05:32;;;;;;;;;;;;;;;;;;5034177;28;19952;-53
2022/11/02 00:07:58;;;;;;;;;;;;;;;;;;5034986;28;20015;-53
2022/11/02 00:10:24;;;;;;;;;;;;;;;;;;5049861;28;20012;-50
2022/11/02 00:12:50;;;;;;;;;;;;;;;;;;5036912;28;19970;-51
2022/11/02 00:15:16;;;;;;;;;;;;;;;;;;5048606;28;20377;-51
2022/11/02 00:17:42;;;;;;;;;;;;;;;;;;5034064;28;19999;-51
2022/11/02 00:20:08;;;;;;;;;;;;;;;;;;5034996;28;19916;-50
2022/11/02 00:22:34;;;;;;;;;;;;;;;;;;5052617;28;19909;-51
2022/11/02 00:25:00;;;;;;;;;;;;;;;;;;5034475;28;19920;-50
2022/11/02 00:27:26;;;;;;;;;;;;;;;;;;5033896;28;20004;-52
2022/11/02 00:29:51;;;;;;;;;;;;;;;;;;5032952;28;19916;-50
2022/11/02 00:32:17;;;;;;;;;;;;;;;;;;5046708;28;20383;-50
2022/11/02 00:34:43;;;;;;;;;;;;;;;;;;5036837;28;19964;-51
2022/11/02 00:37:09;;;;;;;;;;;;;;;;;;5049819;28;20331;-50
2022/11/02 00:39:35;;;;;;;;;;;;;;;;;;5043809;28;19909;-51
2022/11/02 00:42:01;;;;;;;;;;;;;;;;;;5044505;28;19915;-50
2022/11/02 00:44:27;;;;;;;;;;;;;;;;;;5039079;28;19924;-52
2022/11/02 00:46:53;;;;;;;;;;;;;;;;;;5041204;28;19915;-51
2022/11/02 00:49:19;;;;;;;;;;;;;;;;;;5051643;28;19909;-50
2022/11/02 00:51:46;;;;;;;;;;;;;;;;;;5044589;28;20357;-51
2022/11/02 00:54:12;;;;;;;;;;;;;;;;;;5045353;28;19909;-50
2022/11/02 00:56:38;;;;;;;;;;;;;;;;;;5051932;28;20008;-50
2022/11/02 00:59:03;;;;;;;;;;;;;;;;;;5052536;28;20007;-50
2022/11/02 01:01:29;;;;;;;;;;;;;;;;;;5043706;28;19909;-50
2022/11/02 01:03:55;;;;;;;;;;;14.00;94.60;;;;;;5042500;28;19931;-53
2022/11/02 01:06:21;;;;;;;;;;;12.80;96.00;;;;;;5052738;28;19908;-51
2022/11/02 01:08:47;;;;;;;;;;;12.80;96.10;;;;;;5052734;28;19909;-50
2022/11/02 01:11:16;;;;;;;;;;;12.70;96.20;;;;;;5047217;28;20259;-50
2022/11/02 01:13:42;;;;;;;;;;;12.70;96.50;;;;;;5040129;28;19909;-52
2022/11/02 01:16:07;;;;;;;;;;;12.80;96.30;;;;;;5050332;28;19940;-51
2022/11/02 01:18:33;;;;;;;;;;;12.90;96.10;;;;;;5032945;28;19913;-52
2022/11/02 01:20:59;;;;;;;;;;;12.80;95.90;;;;;;5036974;28;20391;-51
2022/11/02 01:23:24;;;;;;;;;;;12.90;95.90;;;;;;5046434;28;19909;-50
2022/11/02 01:25:50;;;;;;;;;;;12.90;95.80;;;;;;5032847;28;20370;-51
2022/11/02 01:28:15;;;;;;;;;;;12.80;96.70;;;;;;5032680;28;19999;-51
2022/11/02 01:30:41;;;;;;;;;;;12.80;96.70;;;;;;5033237;28;19940;-50
2022/11/02 01:33:07;;;;;;;;;;;12.80;96.60;;;;;;5044145;28;20373;-51
2022/11/02 01:35:32;;;;;;;;;;;12.70;96.70;;;;;;5033768;28;20310;-50
2022/11/02 01:37:58;;;;;;;;;;;12.60;97.10;;;;;;5052291;28;19910;-51
2022/11/02 01:40:24;;;;;;;;;;;12.70;97.00;;;;;;5048122;28;19909;-51
2022/11/02 01:42:50;;;;;;;;;;;12.80;96.40;;;;;;5033498;28;19909;-50
2022/11/02 01:45:15;;;;;;;;;;;12.80;96.70;;;;;;5050844;28;20046;-53
2022/11/02 01:47:42;;;;;;;;;;;12.70;97.00;;;;;;5042040;28;19955;-50
2022/11/02 01:50:24;;;;;;;;;;;12.70;96.80;;;;;;5048946;28;19930;-51
2022/11/02 01:52:50;;;;;;;;;;;12.70;96.80;;;;;;5052368;28;19979;-52
2022/11/02 01:55:16;;;;;;;;;;;12.70;96.90;;;;;;5051302;28;19920;-52
2022/11/02 01:57:43;;;;;;;;;;;12.80;96.90;;;;;;5052286;28;19963;-51
2022/11/02 02:00:10;;;;;;;;;;;12.70;97.00;;;;;;5034853;28;19905;-53
2022/11/02 02:02:39;;;;;;;;;;;12.70;97.40;;;;;;5075424;22;19999;-59
2022/11/02 02:05:07;;;;;;;;;;;12.70;97.00;;;;;;5030986;28;20420;-59
2022/11/02 02:07:34;;;;;;;;;;;12.70;96.80;;;;;;5032273;28;19944;-59
2022/11/02 02:10:00;;;;;;;;;;;12.60;97.60;;;;;;5016858;28;19991;-59
2022/11/02 02:12:26;;;;;;;;;;;12.60;97.80;;;;;;5012438;28;19959;-59
2022/11/02 02:14:52;;;;;;;;;;;12.60;96.90;;;;;;5022618;28;19963;-59
2022/11/02 02:17:20;;;;;;;;;;;12.60;96.90;;;;;;5031979;28;20301;-59
2022/11/02 02:19:46;;;;;;;;;;;12.50;97.80;;;;;;5031610;28;19939;-58
2022/11/02 02:22:14;;;;;;;;;;;12.50;97.90;;;;;;5030774;28;20362;-58
2022/11/02 02:25:10;;;;;;;;;;;12.60;97.90;;;;;;5031622;28;19909;-57
2022/11/02 02:28:01;;;;;;;;;;;12.60;97.40;;;;;;5031646;28;19909;-60
2022/11/02 02:30:29;;;;;;;;;;;12.60;97.60;;;;;;5030392;28;20396;-60
2022/11/02 02:32:56;;;;;;;;;;;12.60;97.70;;;;;;5031768;28;19963;-60
2022/11/02 02:35:40;;;;;;;;;;;12.70;97.70;;;;;;5032060;28;19917;-59
2022/11/02 02:38:14;;;;;;;;;;;12.70;97.20;;;;;;5031388;28;19956;-59
2022/11/02 02:40:47;;;;;;;;;;;12.70;97.20;;;;;;5031150;28;20353;-59
2022/11/02 02:43:17;;;;;;;;;;;12.60;97.90;;;;;;5031772;28;20365;-59
2022/11/02 02:45:49;;;;;;;;;;;12.80;97.90;;;;;;5031735;28;20203;-59
2022/11/02 02:48:19;;;;;;;;;;;12.90;97.50;;;;;;5031661;28;19912;-59
2022/11/02 02:50:48;;;;;;;;;;;12.90;96.80;;;;;;5030745;28;19944;-58
2022/11/02 02:53:15;;;;;;;;;;;12.80;97.10;;;;;;5031654;28;19909;-58
2022/11/02 02:55:43;;;;;;;;;;;12.80;97.40;;;;;;5035280;28;20162;-59
2022/11/02 02:58:12;;;;;;;;;;;12.80;97.50;;;;;;5035205;28;19999;-59
2022/11/02 03:00:38;;;;;;;;;;;12.80;97.50;;;;;;5034841;28;19913;-59
2022/11/02 03:03:04;;;;;;;;;;;12.90;97.80;;;;;;5034934;28;20027;-59
2022/11/02 03:05:30;;;;;;;;;;;13.00;97.40;;;;;;5035101;28;19913;-59
2022/11/02 03:07:58;;;;;;;;;;;13.10;96.80;;;;;;5035363;28;19940;-59
2022/11/02 03:10:28;;;;;;;;;;;13.00;97.10;;;;;;5034847;28;19909;-59
2022/11/02 03:12:59;;;;;;;;;;;13.00;97.30;;;;;;5035016;28;19913;-59
2022/11/02 03:15:50;;;;;;;;;;;13.00;96.90;;;;;;5033657;28;19912;-59
2022/11/02 03:18:45;;;;;;;;;;;13.10;97.30;;;;;;5050624;28;20351;-59
2022/11/02 03:21:24;;;;;;;;;;;13.10;97.00;;;;;;4979442;28;20440;-59
2022/11/02 03:24:19;;;;;;;;;;;13.10;97.10;;;;;;5019686;28;19909;-59
2022/11/02 03:27:04;;;;;;;;;;;13.10;97.20;;;;;;5011725;28;19960;-59
2022/11/02 03:29:41;;;;;;;;;;;13.10;97.00;;;;;;5034652;28;19905;-60
2022/11/02 03:32:10;;;;;;;;;;;13.00;97.50;;;;;;5035002;28;20385;-54
2022/11/02 03:34:38;;;;;;;;;;;13.00;97.40;;;;;;5034457;28;20274;-58
2022/11/02 03:37:11;;;;;;;;;;;13.00;97.90;;;;;;5033743;28;19916;-58
2022/11/02 03:39:39;;;;;;;;;;;13.00;97.50;;;;;;5033033;28;20349;-59
2022/11/02 03:42:06;;;;;;;;;;;13.00;97.50;;;;;;5034852;28;20007;-59
2022/11/02 03:44:34;;;;;;;;;;;13.00;98.10;;;;;;5018505;28;20429;-58
2022/11/02 03:47:00;;;;;;;;;;;13.10;97.90;;;;;;5034895;28;19916;-59
2022/11/02 03:49:27;;;;;;;;;;;13.10;97.60;;;;;;5034126;28;19905;-60
2022/11/02 03:51:53;;;;;;;;;;;13.10;97.80;;;;;;5033896;28;19909;-60
2022/11/02 03:54:28;;;;;;;;;;;13.20;97.50;;;;;;5014501;28;19910;-59
2022/11/02 03:56:58;;;;;;;;;;;13.30;97.20;;;;;;5014631;28;19917;-59
2022/11/02 03:59:23;;;;;;;;;;;13.30;97.30;;;;;;5021493;28;20331;-59
2022/11/02 04:01:50;;;;;;;;;;;13.30;96.90;;;;;;5033751;28;19913;-59
2022/11/02 04:04:16;;;;;;;;;;;13.40;97.10;;;;;;5033622;28;20292;-59
2022/11/02 04:06:43;;;;;;;;;;;13.50;97.00;;;;;;5033127;28;19972;-59
2022/11/02 04:09:09;;;;;;;;;;;13.60;96.80;;;;;;5033739;28;19915;-59
2022/11/02 04:14:37;;;;;;;;;;;13.60;96.50;;;;;;5034050;28;20320;-60
2022/11/02 04:19:51;;;;;;;;;;;13.60;96.60;;;;;;5034991;28;20002;-59
2022/11/02 04:25:19;;;;;;;;;;;13.60;96.70;;;;;;5035349;28;19951;-60
2022/11/02 04:27:51;;;;;;;;;;;13.60;97.00;;;;;;5052075;28;19918;-59
2022/11/02 04:30:18;;;;;;;;;;;13.60;96.90;;;;;;5033780;28;19959;-59
2022/11/02 04:35:29;;;;;;;;;;;13.50;97.20;;;;;;5033700;28;19923;-60
2022/11/02 04:40:39;;;;;;;;;;;13.70;96.80;;;;;;5014266;28;19948;-60
2022/11/02 04:43:05;;;;;;;;;;;13.70;96.80;;;;;;5029438;28;20334;-59
2022/11/02 04:45:30;;;;;;;;;;;13.70;96.80;;;;;;5033518;28;19951;-58
2022/11/02 04:48:00;;;;;;;;;;;13.80;96.80;;;;;;5015867;28;19905;-59
2022/11/02 04:50:26;;;;;;;;;;;13.90;96.60;;;;;;5044801;28;19992;-60
2022/11/02 04:52:55;;;;;;;;;;;13.90;96.40;;;;;;5032898;28;19956;-60
2022/11/02 04:55:21;;;;;;;;;;;13.90;96.20;;;;;;5033338;28;20369;-58
2022/11/02 04:57:46;;;;;;;;;;;13.90;96.20;;;;;;5033380;28;19928;-56
2022/11/02 05:00:12;;;;;;;;;;;14.00;96.20;;;;;;5033099;28;19905;-58
2022/11/02 05:02:37;;;;;;;;;;;13.90;96.10;;;;;;5033019;28;19909;-59
2022/11/02 05:05:05;;;;;;;;;;;14.00;96.20;;;;;;5033706;28;19932;-59
2022/11/02 05:07:30;;;;;;;;;;;13.90;96.10;;;;;;5033238;28;19905;-58
2022/11/02 05:09:56;;;;;;;;;;;13.90;96.30;;;;;;5032970;28;19912;-60
2022/11/02 05:12:21;;;;;;;;;;;14.00;96.40;;;;;;5033212;28;19905;-60
2022/11/02 05:14:47;;;;;;;;;;;13.90;96.50;;;;;;5032975;28;20062;-60
2022/11/02 05:17:13;;;;;;;;;;;14.00;96.50;;;;;;5032589;28;19904;-58
2022/11/02 05:19:39;;;;;;;;;;;14.00;96.40;;;;;;5032869;28;19952;-55
2022/11/02 05:22:04;;;;;;;;;;;14.10;96.40;;;;;;5033044;28;19994;-59
2022/11/02 05:24:30;;;;;;;;;;;14.10;96.30;;;;;;5032814;28;20275;-60
2022/11/02 05:26:55;;;;;;;;;;;14.10;96.30;;;;;;5032876;28;19912;-59
2022/11/02 05:29:21;;;;;;;;;;;14.20;96.30;;;;;;5032653;28;19905;-59
2022/11/02 05:31:46;;;;;;;;;;;14.10;96.20;;;;;;5032861;28;19905;-57
2022/11/02 05:34:12;;;;;;;;;;;14.20;96.30;;;;;;5033066;28;19951;-58
2022/11/02 05:36:37;;;;;;;;;;;14.10;96.40;;;;;;5032799;28;19909;-54
2022/11/02 05:39:03;;;;;;;;;;;14.20;96.40;;;;;;5031281;28;19951;-59
2022/11/02 05:41:28;;;;;;;;;;;14.20;96.40;;;;;;5032731;28;20469;-58
2022/11/02 05:43:54;;;;;;;;;;;14.30;96.30;;;;;;5032621;28;20293;-59
2022/11/02 05:46:20;;;;;;;;;;;14.30;96.20;;;;;;5032685;28;19905;-60
2022/11/02 05:48:45;;;;;;;;;;;14.30;96.30;;;;;;5032512;28;20270;-60
2022/11/02 05:51:11;;;;;;;;;;;14.30;96.30;;;;;;5017453;28;19955;-58
2022/11/02 05:53:37;;;;;;;;;;;14.30;96.30;;;;;;5032512;28;19909;-59
2022/11/02 05:56:05;;;;;;;;;;;14.30;96.40;;;;;;5032436;28;19921;-59
2022/11/02 05:58:31;;;;;;;;;;;14.30;96.30;;;;;;5032348;28;19909;-60
2022/11/02 06:01:00;;;;;;;;;;;14.40;96.20;;;;;;5032490;28;19905;-60
2022/11/02 06:03:26;;;;;;;;;;;14.40;96.20;;;;;;5032141;28;19917;-60
2022/11/02 06:05:55;;;;;;;;;;;14.50;96.20;;;;;;5032318;28;19915;-60
2022/11/02 06:08:21;;;;;;;;;;;14.50;96.10;;;;;;5032079;28;19909;-59
2022/11/02 06:10:47;;;;;;;;;;;14.60;96.00;;;;;;5032487;28;20431;-60
2022/11/02 06:13:13;;;;;;;;;;;14.60;96.00;;;;;;5032256;28;19905;-58
2022/11/02 06:15:38;;;;;;;;;;;14.60;95.90;;;;;;5031783;28;19962;-58
2022/11/02 06:18:04;;;;;;;;;;;14.60;96.00;;;;;;5013970;28;19916;-60
2022/11/02 06:20:30;;;;;;;;;;;14.60;95.90;;;;;;5031074;28;20395;-59
2022/11/02 06:22:55;;;;;;;;;;;14.60;95.70;;;;;;5032070;28;20006;-60
2022/11/02 06:25:21;;;;;;;;;;;14.70;95.80;;;;;;5032184;28;19905;-61
2022/11/02 06:27:50;;;;;;;;;;;14.70;95.80;;;;;;5032182;28;19909;-61
2022/11/02 06:30:15;;;;;;;;;;;14.70;95.80;;;;;;5035634;28;19959;-60
2022/11/02 06:32:45;;;;;;;;;;;14.60;95.80;;;;;;5036191;28;20439;-60
2022/11/02 06:35:11;;;;;;;;;;;14.60;95.90;;;;;;5036038;28;19909;-60
2022/11/02 06:37:36;;;;;;;;;;;14.60;95.90;;;;;;5036211;28;19912;-60
2022/11/02 06:40:02;;;;;;;;;;;14.60;96.00;;;;;;5036200;28;19905;-60
2022/11/02 06:42:28;;;;;;;;;;;14.50;96.30;;;;;;5018636;28;19909;-59
2022/11/02 06:44:54;;;;;;;;;;;14.50;96.20;;;;;;5018380;28;19905;-60
2022/11/02 06:47:19;;;;;;;;;;;14.60;96.10;;;;;;5035961;28;19905;-58
2022/11/02 06:49:45;;;;;;;;;;;14.60;96.20;;;;;;5035465;28;19916;-59
2022/11/02 06:52:10;;;;;;;;;;;14.70;96.30;;;;;;5035843;28;19905;-59
2022/11/02 06:54:36;;;;;;;;;;;14.80;96.10;;;;;;5035677;28;19916;-58
2022/11/02 06:57:01;;;;;;;;;;;14.80;95.80;;;;;;5035834;28;19912;-58
2022/11/02 06:59:27;;;;;;;;;;;14.90;95.70;;;;;;5035760;28;19905;-60
2022/11/02 07:01:53;;;;;;;;;;;15.00;95.60;;;;;;5035717;28;19950;-60
2022/11/02 07:04:18;;;;;;;;;;;15.00;95.50;;;;;;5035399;28;20055;-60
2022/11/02 07:06:44;;;;;;;;;;;15.00;95.40;;;;;;5035610;28;19905;-56
2022/11/02 07:09:09;;;;;;;;;;;15.00;95.30;;;;;;5035476;28;20369;-60
2022/11/02 07:11:35;;;;;;;;;;;15.00;95.40;;;;;;5017914;28;19905;-60
2022/11/02 07:14:01;;;;;;;;;;;15.00;95.40;;;;;;5035434;28;20286;-60
2022/11/02 07:16:26;;;;;;;;;;;15.00;95.30;;;;;;5035333;28;19931;-60
2022/11/02 07:18:52;;;;;;;;;;;15.10;95.30;;;;;;5035144;28;19905;-60
2022/11/02 07:21:17;;;;;;;;;;;15.00;95.40;;;;;;5035306;28;19909;-60
2022/11/02 07:23:43;;;;;;;;;;;15.00;95.20;;;;;;5035307;28;20393;-58
2022/11/02 07:26:08;;;;;;;;;;;15.00;95.20;;;;;;5035298;28;19915;-57
2022/11/02 07:28:36;;;;;;;;;;;15.00;95.20;;;;;;5035108;28;19905;-59
2022/11/02 07:31:02;;;;;;;;;;;15.00;95.40;;;;;;5035155;28;20281;-59
2022/11/02 07:33:28;;;;;;;;;;;15.00;95.30;;;;;;5034211;28;20000;-59
2022/11/02 07:35:53;;;;;;;;;;;15.00;95.40;;;;;;5035057;28;19909;-59
2022/11/02 07:38:19;;;;;;;;;;;15.00;95.30;;;;;;5034098;28;19916;-60
2022/11/02 07:40:47;;;;;;;;;;;14.90;95.40;;;;;;5034519;28;19905;-60
2022/11/02 07:43:12;;;;;;;;;;;15.00;95.60;;;;;;5034898;28;20281;-60
2022/11/02 07:45:38;;;;;;;;;;;15.00;95.50;;;;;;5034421;28;19912;-60
2022/11/02 07:48:03;;;;;;;;;;;15.10;95.20;;;;;;5033259;28;19905;-58
2022/11/02 07:50:29;;;;;;;;;;;15.10;95.20;;;;;;5034454;28;19909;-59
2022/11/02 07:52:55;;;;;;;;;;;15.20;95.10;;;;;;5034766;28;20358;-58
2022/11/02 07:55:28;;;;;;;;;;;15.20;95.10;;;;;;5034623;28;19931;-60
2022/11/02 07:58:08;;;;;;;;;;;15.20;95.00;;;;;;5034620;28;19909;-60
2022/11/02 08:00:39;;;;;;;;;;;15.20;94.80;;;;;;5034513;28;19905;-60
2022/11/02 08:03:06;;;;;;;;;;;15.20;94.90;;;;;;5057697;22;19929;-51
2022/11/02 08:05:35;;;;;;;;;;;15.20;95.00;;;;;;5054300;28;19991;-50
2022/11/02 08:08:01;;;;;;;;;;;15.20;95.00;;;;;;5054316;28;20323;-50
2022/11/02 08:10:27;;;;;;;;;;;15.00;95.40;;;;;;5036251;28;19912;-51
2022/11/02 08:12:53;;;;;;;;;;;15.00;95.50;;;;;;5036326;28;19932;-50
2022/11/02 08:15:19;;;;;;;;;;;15.00;95.20;;;;;;5054026;28;20402;-52
2022/11/02 08:17:45;;;;;;;;;;;15.10;95.50;;;;;;5054062;28;19940;-53
2022/11/02 08:20:10;;;;;;;;;;;15.20;95.20;;;;;;5054066;28;19905;-50
2022/11/02 08:22:39;;;;;;;;;;;15.10;95.30;;;;;;5054277;28;19905;-50
2022/11/02 08:25:05;;;;;;;;;;;15.20;95.30;;;;;;5053939;28;20439;-51
2022/11/02 08:27:31;;;;;;;;;;;15.30;94.90;;;;;;5053886;28;20361;-53
2022/11/02 08:29:56;;;;;;;;;;;15.30;94.90;;;;;;5053802;28;19938;-52
2022/11/02 08:32:22;;;;;;;;;;;15.40;94.80;;;;;;5053898;28;20373;-51
2022/11/02 08:34:47;;;;;;;;;;;15.50;94.80;;;;;;5035795;28;20007;-51
2022/11/02 08:37:13;;;;;;;;;;;15.50;94.70;;;;;;5054086;28;19905;-51
2022/11/02 08:39:38;;;;;;;;;;;15.60;94.50;;;;;;5053049;28;20643;-53
2022/11/02 08:42:04;;;;;;;;;;;15.60;94.20;;;;;;5054095;28;20421;-51
2022/11/02 08:44:30;;;;;;;;;;;15.60;94.10;;;;;;5053610;28;20384;-50
2022/11/02 08:46:56;;;;;;;;;;;15.60;94.40;;;;;;5053775;28;19905;-53
2022/11/02 08:49:21;;;;;;;;;;;15.60;94.30;;;;;;5053582;28;20508;-52
2022/11/02 08:51:47;;;;;;;;;;;15.60;94.20;;;;;;5052287;28;19905;-50
2022/11/02 08:54:13;;;;;;;;;;;15.60;94.10;;;;;;5053658;28;20395;-50
2022/11/02 08:56:38;;;;;;;;;;;15.60;94.30;;;;;;5053427;28;19913;-50
2022/11/02 08:59:04;;;;;;;;;;;15.60;94.10;;;;;;5035428;28;19904;-50
2022/11/02 09:01:29;;;;;;;;;;;15.60;94.20;;;;;;5053099;28;19913;-50
2022/11/02 09:03:55;;;;;;;;;;;15.60;94.20;;;;;;5052683;28;19919;-49
2022/11/02 09:06:21;;;;;;;;;;;15.70;94.20;;;;;;5053452;28;19955;-50
2022/11/02 09:08:46;;;;;;;;;;;15.70;94.00;;;;;;5035212;28;19955;-50
2022/11/02 09:11:12;;;;;;;;;;;15.70;93.90;;;;;;5053184;28;19915;-51
2022/11/02 09:13:37;;;;;;;;;;;15.70;93.80;;;;;;5053085;28;19912;-50
2022/11/02 09:16:03;;;;;;;;;;;15.70;94.00;;;;;;5034456;28;20372;-50
2022/11/02 09:18:29;;;;;;;;;;;15.70;93.90;;;;;;5051829;28;19908;-50
2022/11/02 09:20:54;;;;;;;;;;;15.80;93.80;;;;;;5052599;28;19905;-50
2022/11/02 09:23:20;;;;;;;;;;;15.80;93.80;;;;;;5034583;28;19912;-52
2022/11/02 09:25:47;;;;;;;;;;;15.80;93.80;;;;;;5052829;28;19909;-53
2022/11/02 09:28:14;;;;;;;;;;;15.80;93.80;;;;;;5052583;28;19999;-51
2022/11/02 09:30:39;;;;;;;;;;;15.80;93.60;;;;;;5052678;28;20410;-51
2022/11/02 09:33:05;;;;;;;;;;;15.90;93.50;;;;;;5034851;28;19983;-50
2022/11/02 09:35:32;;;;;;;;;;;15.80;93.60;;;;;;5052578;28;19909;-51
2022/11/02 09:37:58;;;;;;;;;;;15.80;93.50;;;;;;5052555;28;19904;-50
2022/11/02 09:40:25;;;;;;;;;;;15.80;93.40;;;;;;5052469;28;20375;-50
2022/11/02 09:43:04;;;;;;;;;;;15.80;93.40;;;;;;5034600;28;19911;-50
2022/11/02 09:45:35;;;;;;;;;;;15.90;93.60;;;;;;5052626;28;19909;-50
2022/11/02 09:48:23;;;;;;;;;;;16.00;93.50;;;;;;5034669;28;20381;-52
2022/11/02 09:50:51;;;;;;;;;;;16.10;93.40;;;;;;5052670;28;19907;-53
2022/11/02 09:53:19;;;;;;;;;;;16.10;93.30;;;;;;5052233;28;19905;-51
2022/11/02 09:55:48;;;;;;;;;;;16.20;93.20;;;;;;5052300;28;20486;-50
2022/11/02 09:58:18;;;;;;;;;;;16.20;92.90;;;;;;5052216;28;20285;-50
2022/11/02 10:00:46;;;;;;;;;;;16.20;93.10;;;;;;5052285;28;19991;-50
2022/11/02 10:03:19;;;;;;;;;;;16.20;92.90;;;;;;5051761;28;19916;-50
2022/11/02 10:05:47;;;;;;;;;;;16.30;92.70;;;;;;5052178;28;19959;-51
2022/11/02 10:08:13;;;;;;;;;;;16.30;92.80;;;;;;5052175;28;19904;-51
2022/11/02 10:10:41;;;;;;;;;;;16.30;93.00;;;;;;5052316;28;20338;-50
2022/11/02 10:13:10;;;;;;;;;;;16.30;93.00;;;;;;5052060;28;19966;-52
2022/11/02 10:15:35;;;;;;;;;;;16.30;92.80;;;;;;5051967;28;19915;-50
2022/11/02 10:18:01;;;;;;;;;;;16.30;92.70;;;;;;5052117;28;19904;-51
2022/11/02 10:20:33;;;;;;;;;;;16.30;92.60;;;;;;5051955;28;20007;-50
2022/11/02 10:23:02;;;;;;;;;;;16.40;92.80;;;;;;5052043;28;19912;-51
2022/11/02 10:25:27;;;;;;;;;;;16.40;92.80;;;;;;5052029;28;19951;-50
2022/11/02 10:28:00;;;;;;;;;;;16.40;92.40;;;;;;5034123;28;19909;-53
2022/11/02 10:30:26;;;;;;;;;;;16.40;92.40;;;;;;5051909;28;19905;-51
2022/11/02 10:32:53;;;;;;;;;;;16.40;92.50;;;;;;5051861;28;19915;-52
2022/11/02 10:35:37;;;;;;;;;;;16.40;92.70;;;;;;5033988;28;19915;-52
2022/11/02 10:38:24;;;;;;;;;;;16.50;92.20;;;;;;5051879;28;19958;-50
2022/11/02 10:40:56;;;;;;;;;;;16.40;92.40;;;;;;5034084;28;20407;-50
2022/11/02 10:43:33;;;;;;;;;;;16.40;92.40;;;;;;5051757;28;19909;-50
2022/11/02 10:46:17;;;;;;;;;;;16.40;92.50;;;;;;5051905;28;19912;-50
2022/11/02 10:48:51;;;;;;;;;;;16.40;92.40;;;;;;5051752;28;19936;-51
2022/11/02 10:51:16;;;;;;;;;;;16.50;92.30;;;;;;5051831;28;19905;-50
2022/11/02 10:53:43;;;;;;;;;;;16.50;91.80;;;;;;5052075;28;20287;-50
2022/11/02 10:56:12;;;;;;;;;;;16.60;92.10;;;;;;5051672;28;19909;-50
2022/11/02 10:58:39;;;;;;;;;;;16.60;91.90;;;;;;5051484;28;19905;-50
2022/11/02 11:01:09;;;;;;;;;;;16.40;92.20;;;;;;5051694;28;19952;-50
2022/11/02 11:03:51;;;;;;;;;;;16.40;92.30;;;;;;5051385;28;19959;-50
2022/11/02 11:06:17;;;;;;;;;;;16.30;92.80;;;;;;5051661;28;19940;-51
2022/11/02 11:08:43;;;;;;;;;;;16.40;92.60;;;;;;5051477;28;19951;-50
2022/11/02 11:11:09;;;;;;;;;;;16.40;92.30;;;;;;5051738;28;20433;-50
2022/11/02 11:13:34;;;;;;;;;;;16.30;92.70;;;;;;5050234;28;19911;-50
2022/11/02 11:16:02;;;;;;;;;;;16.30;92.50;;;;;;5054263;28;20075;-51
2022/11/02 11:18:28;;;;;;;;;;;16.30;92.60;;;;;;5037177;28;20339;-50
2022/11/02 11:20:54;;;;;;;;;;;16.30;92.40;;;;;;5055249;28;19950;-50
2022/11/02 11:23:21;;;;;;;;;;;16.30;92.60;;;;;;5037220;28;19977;-50
2022/11/02 11:25:56;;;;;;;;;;;16.20;92.60;;;;;;5037272;28;20348;-50
2022/11/02 11:28:21;;;;;;;;;;;16.20;92.70;;;;;;5054957;28;20297;-50
2022/11/02 11:30:57;;;;;;;;;;;16.20;93.00;;;;;;5055112;28;19916;-53
2022/11/02 11:33:22;;;;;;;;;;;16.30;92.80;;;;;;5055036;28;19912;-52
2022/11/02 11:35:48;;;;;;;;;;;16.40;92.70;;;;;;5054995;28;19909;-54
2022/11/02 11:38:16;;;;;;;;;;;16.40;93.00;;;;;;5036974;28;19993;-53
2022/11/02 11:40:43;;;;;;;;;;;16.30;93.30;;;;;;5053724;28;19908;-52
2022/11/02 11:43:11;;;;;;;;;;;16.30;93.60;;;;;;5054090;28;19916;-52
2022/11/02 11:45:36;;;;;;;;;;;16.40;93.30;;;;;;5054010;28;19905;-51
2022/11/02 11:48:02;;;;;;;;;;;16.50;93.00;;;;;;5054627;28;19912;-51
2022/11/02 11:50:27;;;;;;;;;;;16.60;93.10;;;;;;5054313;28;19915;-51
2022/11/02 11:53:11;;;;;;;;;;;16.80;92.90;;;;;;5054791;28;20299;-51
2022/11/02 11:55:44;;;;;;;;;;;16.90;92.60;;;;;;5054497;28;20376;-52
2022/11/02 11:58:10;;;;;;;;;;;16.90;92.20;;;;;;5054336;28;19954;-51
2022/11/02 12:00:35;;;;;;;;;;;16.80;92.50;;;;;;5054598;28;19908;-50
2022/11/02 12:03:04;;;;;;;;;;;16.80;92.30;;;;;;5053848;28;19909;-52
2022/11/02 12:05:31;;;;;;;;;;;16.80;92.60;;;;;;5054584;28;19913;-51
2022/11/02 12:08:17;;;;;;;;;;;16.80;92.50;;;;;;5053605;28;19913;-51
2022/11/02 12:10:55;;;;;;;;;;;16.70;92.90;;;;;;5034033;28;19909;-51
2022/11/02 12:13:20;;;;;;;;;;;16.50;93.30;;;;;;5033365;28;19908;-51
2022/11/02 12:15:52;;;;;;;;;;;16.50;93.20;;;;;;5037546;28;20342;-52
2022/11/02 12:18:18;;;;;;;;;;;16.40;93.30;;;;;;5053585;28;19916;-54
2022/11/02 12:20:44;;;;;;;;;;;16.40;93.70;;;;;;5062691;28;20292;-52
2022/11/02 12:23:29;;;;;;;;;;;16.40;93.80;;;;;;5056498;28;20001;-51
2022/11/02 12:26:15;;;;;;;;;;;16.20;93.70;;;;;;5055433;28;19940;-53
2022/11/02 12:28:49;;;;;;;;;;;16.20;93.90;;;;;;5021388;28;19909;-52
2022/11/02 12:31:21;;;;;;;;;;;16.20;93.70;;;;;;5051497;28;19952;-50
2022/11/02 12:33:49;;;;;;;;;;;16.30;93.70;;;;;;5053803;28;19909;-52
2022/11/02 12:36:23;;;;;;;;;;;16.30;93.90;;;;;;5053166;28;19940;-53
2022/11/02 12:38:51;;;;;;;;;;;16.30;94.00;;;;;;5053390;28;19905;-54
2022/11/02 12:41:26;;;;;;;;;;;16.20;94.20;;;;;;5054074;28;20289;-51
2022/11/02 12:43:56;;;;;;;;;;;16.20;94.30;;;;;;5054064;28;19938;-53
2022/11/02 12:46:25;;;;;;;;;;;16.20;94.60;;;;;;5053456;28;20437;-51
2022/11/02 12:49:09;;;;;;;;;;;16.20;94.70;;;;;;5053493;28;19909;-53
2022/11/02 12:51:43;;;;;;;;;;;16.20;94.50;;;;;;5053869;28;20357;-50
2022/11/02 12:54:10;;;;;;;;;;;16.40;94.10;;;;;;5053338;28;20357;-50
2022/11/02 12:56:36;;;;;;;;;;;16.40;93.80;;;;;;5053261;28;19913;-50
2022/11/02 12:59:01;;;;;;;;;;;16.50;93.80;;;;;;5053451;28;19904;-50
2022/11/02 13:01:39;;;;;;;;;;;16.50;93.70;;;;;;5053236;28;19909;-50
2022/11/02 13:04:11;;;;;;;;;;;16.50;94.00;;;;;;5052514;28;20035;-50
2022/11/02 13:06:44;;;;;;;;;;;16.50;93.90;;;;;;5053318;28;19908;-50
2022/11/02 13:09:30;;;;;;;;;;;16.70;93.80;;;;;;5053207;28;19916;-50
2022/11/02 13:12:22;;;;;;;;;;;16.70;93.60;;;;;;5052855;28;19912;-50
2022/11/02 13:14:48;;;;;;;;;;;16.80;93.50;;;;;;5049663;28;19919;-50
2022/11/02 13:17:26;;;;;;;;;;;16.90;93.50;;;;;;5053167;28;19978;-50
2022/11/02 13:19:56;;;;;;;;;;;17.00;93.30;;;;;;5053033;28;19909;-51
2022/11/02 13:22:42;;;;;;;;;;;17.10;93.00;;;;;;5052617;28;19905;-50
2022/11/02 13:25:22;;;;;;;;;;;17.20;93.00;;;;;;5052700;28;19909;-51
2022/11/02 13:27:56;;;;;;;;;;;17.30;92.70;;;;;;5052430;28;19911;-51
2022/11/02 13:30:21;;;;;;;;;;;17.20;92.60;;;;;;5052851;28;19944;-50
2022/11/02 13:33:02;;;;;;;;;;;17.20;92.50;;;;;;5038093;28;19990;-52
2022/11/02 13:35:32;;;;;;;;;;;17.20;92.90;;;;;;5053401;28;19913;-53
2022/11/02 13:38:02;;;;;;;;;;;17.00;93.30;;;;;;5052565;28;19916;-52
2022/11/02 13:40:36;;;;;;;;;;;16.90;93.80;;;;;;5052485;28;19905;-50
2022/11/02 13:43:06;;;;;;;;;;;16.80;93.90;;;;;;5052006;28;19909;-51
2022/11/02 13:46:04;;;;;;;;;;;16.80;93.90;;;;;;5052577;28;19997;-50
2022/11/02 13:48:48;;;;;;;;;;;16.80;94.10;;;;;;5007939;28;19909;-51
2022/11/02 13:51:26;;;;;;;;;;;16.70;94.20;;;;;;5052279;28;19912;-50
2022/11/02 13:53:55;;;;;;;;;;;16.80;94.20;;;;;;5052417;28;19978;-51
2022/11/02 13:56:25;;;;;;;;;;;16.80;94.30;;;;;;5052360;28;19966;-49
2022/11/02 13:58:56;;;;;;;;;;;16.80;94.10;;;;;;5051298;28;19905;-51
2022/11/02 14:01:22;;;;;;;;;;;16.80;93.80;;;;;;5048926;28;19934;-50
2022/11/02 14:03:50;;;;;;;;;;;16.90;93.90;;;;;;5052562;28;19913;-51
2022/11/02 14:06:16;;;;;;;;;;;16.80;93.90;;;;;;5052270;28;19904;-51
2022/11/02 14:08:57;;;;;;;;;;;16.70;94.00;;;;;;5052136;28;20357;-51
2022/11/02 14:11:31;;;;;;;;;;;16.80;94.00;;;;;;5052150;28;19927;-50
2022/11/02 14:13:57;;;;;;;;;;;16.80;93.70;;;;;;5050583;28;19909;-50
2022/11/02 14:16:41;;;;;;;;;;;16.80;93.60;;;;;;5050600;28;20369;-51
2022/11/02 14:19:19;;;;;;;;;;;16.90;93.80;;;;;;5051645;28;20007;-50
2022/11/02 14:22:04;;;;;;;;;;;16.90;93.80;;;;;;5051195;28;19984;-52
2022/11/02 14:24:35;;;;;;;;;;;16.90;93.50;;;;;;5051451;28;19964;-50
2022/11/02 14:27:23;;;;;;;;;;;16.90;93.60;;;;;;5049433;28;19962;-51
2022/11/02 14:29:49;;;;;;;;;;;17.00;93.70;;;;;;5051243;28;19948;-51
2022/11/02 14:32:20;;;;;;;;;;;17.00;93.40;;;;;;5051570;28;20384;-51
2022/11/02 14:34:46;;;;;;;;;;;17.00;93.40;;;;;;5041475;28;20285;-50
2022/11/02 14:37:35;;;;;;;;;;;17.00;93.50;;;;;;5051920;28;19935;-49
2022/11/02 14:40:00;;;;;;;;;;;17.00;93.50;;;;;;5039447;28;20292;-49
2022/11/02 14:42:26;;;;;;;;;;;17.00;93.30;;;;;;5050334;28;19908;-52
2022/11/02 14:44:54;;;;;;;;;;;16.90;93.40;;;;;;5050821;28;19909;-52
2022/11/02 14:47:25;;;;;;;;;;;16.90;93.50;;;;;;5053773;28;19916;-50
2022/11/02 14:49:55;;;;;;;;;;;17.00;93.60;;;;;;5041807;28;19948;-51